Inverbervie, United Kingdom
Current Conditions -  °F | °C
As of 11:50 PM on Saturday 25 Oct 2014 (Local Time) from EGPD Reporting Station
Scattered Clouds Scattered Clouds  
Wind Chill: 50°   Ceiling: Unl
Heat Index: 50°   Visibility: 6mi
Dew Point: 43°   Wind: 21mph
Humidity: 76%   Direction: 210°SSW
Pressure: 29.53"   Gusts: NA
Location:  56.84°N, 2.28°W
Report Text: EGPD 252250Z AUTO 21018KT 9999 SCT042/// SCT049/// 10/06 Q1000
Loading
Personal Weather Stations






























Interactive Weather Map
Tropical Storm Tracking
New forecast layout! Learn more

10-Day Weather Forecast

Advertisements
Track Severe Weather on mobile